Wawa, Canada
Current Conditions -  °F | °C
As of 7:00 AM on Sunday 23 Nov 2014 (Local Time) from CYXZ Reporting Station
Haze Haze  
Wind Chill: 28°   Ceiling: 700
Heat Index: 34°   Visibility: 1mi
Dew Point: 34°   Wind: 7mph
Humidity: 100%   Direction: 130°SE
Pressure: 29.66"   Gusts: NA
Location:  48°N, 84.82°W
Report Text: CYXZ 231200Z 13006KT 100V160 1SM BR OVC007 01/01 A2966 RMK ST8 PRESFR SLP057
Loading
Personal Weather Stations






























Interactive Weather Map New forecast layout! Learn more

10-Day Weather Forecast

Advertisements
Track Severe Weather on mobile